sensor_id;sensor_type;location;lat;lon;timestamp;pressure;altitude;pressure_sealevel;temperature;humidity
44531;BME280;30240;47.418;0.700;2023-01-25T00:01:02;102185.62622070312;;;2.84;89.64
44531;BME280;30240;47.418;0.700;2023-01-25T00:03:23;102189.66674804688;;;2.81;89.58
44531;BME280;30240;47.418;0.700;2023-01-25T00:05:59;102181.005859375;;;2.77;89.65
44531;BME280;30240;47.418;0.700;2023-01-25T00:08:13;102181.005859375;;;2.77;89.65
44531;BME280;30240;47.418;0.700;2023-01-25T00:10:39;102173.01635742188;;;2.8;89.64
44531;BME280;30240;47.418;0.700;2023-01-25T00:13:03;102173.43139648438;;;2.77;89.79
44531;BME280;30240;47.418;0.700;2023-01-25T00:15:29;102174.35913085938;;;2.81;89.63
44531;BME280;30240;47.418;0.700;2023-01-25T00:17:53;102173.10791015625;;;2.78;89.72
44531;BME280;30240;47.418;0.700;2023-01-25T00:20:18;102173.10791015625;;;2.78;89.72
44531;BME280;30240;47.418;0.700;2023-01-25T00:22:43;102168.75610351562;;;2.87;89.59
44531;BME280;30240;47.418;0.700;2023-01-25T00:25:08;102168.83544921875;;;2.89;89.44
44531;BME280;30240;47.418;0.700;2023-01-25T00:27:34;102164.5751953125;;;2.91;89.4
44531;BME280;30240;47.418;0.700;2023-01-25T00:29:59;102157.61108398438;;;2.81;89.59
44531;BME280;30240;47.418;0.700;2023-01-25T00:32:29;102157.61108398438;;;2.81;89.59
44531;BME280;30240;47.418;0.700;2023-01-25T00:34:49;102155.908203125;;;2.84;89.69
44531;BME280;30240;47.418;0.700;2023-01-25T00:37:19;102150.97045898438;;;2.8;89.66
44531;BME280;30240;47.418;0.700;2023-01-25T00:39:39;102153.79638671875;;;2.78;89.57
44531;BME280;30240;47.418;0.700;2023-01-25T00:42:03;102147.5341796875;;;2.78;89.6
44531;BME280;30240;47.418;0.700;2023-01-25T00:44:28;102147.5341796875;;;2.78;89.6
44531;BME280;30240;47.418;0.700;2023-01-25T00:46:53;102148.20556640625;;;2.91;89.62
44531;BME280;30240;47.418;0.700;2023-01-25T00:49:20;102149.72534179688;;;2.87;89.5
44531;BME280;30240;47.418;0.700;2023-01-25T00:51:43;102148.45581054688;;;2.8;89.55
44531;BME280;30240;47.418;0.700;2023-01-25T00:54:08;102145.78247070312;;;2.89;89.63
44531;BME280;30240;47.418;0.700;2023-01-25T00:56:33;102145.78247070312;;;2.89;89.63
44531;BME280;30240;47.418;0.700;2023-01-25T00:58:58;102144.580078125;;;2.84;89.55
44531;BME280;30240;47.418;0.700;2023-01-25T01:01:23;102145.09887695312;;;2.89;89.62
44531;BME280;30240;47.418;0.700;2023-01-25T01:03:50;102149.25537109375;;;2.96;89.41
44531;BME280;30240;47.418;0.700;2023-01-25T01:06:13;102152.93579101562;;;2.91;89.44
44531;BME280;30240;47.418;0.700;2023-01-25T01:08:39;102152.93579101562;;;2.91;89.44
44531;BME280;30240;47.418;0.700;2023-01-25T01:11:05;102144.80590820312;;;2.82;89.53
44531;BME280;30240;47.418;0.700;2023-01-25T01:13:29;102150.62255859375;;;2.88;89.56
44531;BME280;30240;47.418;0.700;2023-01-25T01:15:54;102151.7822265625;;;2.88;89.48
44531;BME280;30240;47.418;0.700;2023-01-25T01:18:18;102153.21655273438;;;2.85;89.65
44531;BME280;30240;47.418;0.700;2023-01-25T01:20:47;102149.15771484375;;;2.91;89.39
44531;BME280;30240;47.418;0.700;2023-01-25T01:23:08;102149.15771484375;;;2.91;89.39
44531;BME280;30240;47.418;0.700;2023-01-25T01:25:33;102146.9482421875;;;2.88;89.44
44531;BME280;30240;47.418;0.700;2023-01-25T01:27:58;102147.44262695312;;;3.0;89.44
44531;BME280;30240;47.418;0.700;2023-01-25T01:30:23;102141.81518554688;;;3.0;89.14
44531;BME280;30240;47.418;0.700;2023-01-25T01:32:50;102146.54541015625;;;3.06;89.17
44531;BME280;30240;47.418;0.700;2023-01-25T01:35:14;102146.54541015625;;;3.06;89.17
44531;BME280;30240;47.418;0.700;2023-01-25T01:37:43;102144.32983398438;;;3.0;89.25
44531;BME280;30240;47.418;0.700;2023-01-25T01:40:04;102140.12451171875;;;3.0;89.12
44531;BME280;30240;47.418;0.700;2023-01-25T01:42:29;102143.1884765625;;;3.03;89.25
44531;BME280;30240;47.418;0.700;2023-01-25T01:44:54;102141.552734375;;;3.08;89.05
44531;BME280;30240;47.418;0.700;2023-01-25T01:47:21;102141.552734375;;;3.08;89.05
44531;BME280;30240;47.418;0.700;2023-01-25T01:49:49;102135.56518554688;;;2.98;89.07
44531;BME280;30240;47.418;0.700;2023-01-25T01:52:11;102137.68920898438;;;3.06;89.22
44531;BME280;30240;47.418;0.700;2023-01-25T01:54:36;102134.85107421875;;;3.03;89.12
44531;BME280;30240;47.418;0.700;2023-01-25T01:57:01;102140.67993164062;;;2.96;89.26
44531;BME280;30240;47.418;0.700;2023-01-25T01:59:27;102140.67993164062;;;2.96;89.26
44531;BME280;30240;47.418;0.700;2023-01-25T02:01:49;102142.77954101562;;;2.95;89.19
44531;BME280;30240;47.418;0.700;2023-01-25T02:04:14;102143.45092773438;;;2.93;89.23
44531;BME280;30240;47.418;0.700;2023-01-25T02:06:43;102138.19580078125;;;3.0;89.09
44531;BME280;30240;47.418;0.700;2023-01-25T02:09:11;102138.9404296875;;;3.05;89.09
44531;BME280;30240;47.418;0.700;2023-01-25T02:11:31;102138.9404296875;;;3.05;89.09
44531;BME280;30240;47.418;0.700;2023-01-25T02:13:55;102133.7646484375;;;2.93;89.11
44531;BME280;30240;47.418;0.700;2023-01-25T02:16:23;102137.18872070312;;;2.99;89.03
44531;BME280;30240;47.418;0.700;2023-01-25T02:18:44;102137.6220703125;;;3.02;89.07
44531;BME280;30240;47.418;0.700;2023-01-25T02:21:09;102134.21630859375;;;2.99;89.03
44531;BME280;30240;47.418;0.700;2023-01-25T02:23:36;102134.21630859375;;;2.99;89.03
44531;BME280;30240;47.418;0.700;2023-01-25T02:26:00;102135.85815429688;;;2.93;89.19
44531;BME280;30240;47.418;0.700;2023-01-25T02:28:25;102137.99438476562;;;2.99;89.1
44531;BME280;30240;47.418;0.700;2023-01-25T02:30:49;102137.01782226562;;;3.0;89.03
44531;BME280;30240;47.418;0.700;2023-01-25T02:33:14;102140.19775390625;;;2.98;89.08
44531;BME280;30240;47.418;0.700;2023-01-25T02:35:41;102140.19775390625;;;2.98;89.08
44531;BME280;30240;47.418;0.700;2023-01-25T02:38:04;102132.92236328125;;;3.03;89.04
44531;BME280;30240;47.418;0.700;2023-01-25T02:40:30;102139.43481445312;;;3.02;89.23
